Meppen Air Base

ETWM · 下萨克森, 德国

使用的METAR站距离机场67 km。
罗盘
风向 的 风向 330° Meppen Air Base 6/24
风: 1 kt, 1 beaufort


1 kt
改变
0 ft 1.000 2.000 3.000 4.000 5.000
VV 0
METAR EHGG 042155Z AUTO 33001KT 0550 R23/0700D FG VV000 07/07 Q1012

METAR Meppen Air Base - ETWM

Meppen Air Base是,德国中的小机场。 该机场位于纬度52,72322和经度7,32652。 该机场有一条跑道: 6/24. 本场的ICAO机场代码为ETWM。 机场在Amsterdam FIR中。

该航空气象观测是针对Groningen Airport Eelde在2024年3月4日 22:55, 当地时间进行的。

机场观察

风向为330°,速度为1 kt。

可见度为550 m。 跑道23的能见度为700 m 和 减少。

垂直能见度为0 ft 没有观察到天花板。

当前天气为多雾路段。 温度和风寒是7 °C。 露点为7 °C,相对湿度为100%。 海平面上的气压为1012 hPa (QNH)。

白天

今天,太阳从07:09升起,在18:15降落。 这适用于Meppen Air Base,世界夏令时可能有所不同。 当地时间与世界标准时间之间的时差为+1 小时。 当前,没有夏令时有效。

公司介绍

我们没有关于这个机场的公司信息。

体会

到Vliegles.nl去找飞行课程,跳伞和其他飞行体验。 浏览页面,了解Meppen Air Base附近所有可用的活动。 你也可以使用搜索功能来寻找你所在地附近的特定飞行课程、跳伞或其他飞行体验。

警示语

垂直能见度为0 ft。
跑道23处的能见度为700 m 和 减少。

跑道

Id 标题 侧风 逆风 侧风 %
6/24 056°-236° 100 %

逆风成分最大的方向会被突出显示,并用于横风计算。 这并不一定意味着这个方向在使用。

乌云

0 ft VV 垂直能见度

温度 & 天气

天气 多雾路段
温度 7 °C
露点 7 °C
相对湿度 100%
Kp-index 0 (0-9)

白天

日出
07:12 (8:02)
中午
12:45
日落
18:18

小工具

你想在你的网站上有一个关于Meppen Air Base的当前航空天气(METAR)的小部件吗?

显示HTML代码
?>